sensor_id;sensor_type;location;lat;lon;timestamp;pressure;altitude;pressure_sealevel;temperature;humidity
69173;BME280;56280;49.662;8.408;2023-04-07T00:01:13;100723.56;;;8.60;86.62
69173;BME280;56280;49.662;8.408;2023-04-07T00:03:38;100722.41;;;8.64;86.34
69173;BME280;56280;49.662;8.408;2023-04-07T00:06:05;100707.38;;;8.52;86.55
69173;BME280;56280;49.662;8.408;2023-04-07T00:08:30;100725.16;;;8.63;85.94
69173;BME280;56280;49.662;8.408;2023-04-07T00:10:55;100694.34;;;8.49;86.23
69173;BME280;56280;49.662;8.408;2023-04-07T00:13:21;100702.16;;;8.37;85.93
69173;BME280;56280;49.662;8.408;2023-04-07T00:15:46;100700.53;;;8.22;86.93
69173;BME280;56280;49.662;8.408;2023-04-07T00:18:12;100719.69;;;8.26;87.25
69173;BME280;56280;49.662;8.408;2023-04-07T00:20:37;100704.91;;;8.36;87.44
69173;BME280;56280;49.662;8.408;2023-04-07T00:23:02;100690.34;;;8.16;87.39
69173;BME280;56280;49.662;8.408;2023-04-07T00:25:28;100679.03;;;8.27;87.02
69173;BME280;56280;49.662;8.408;2023-04-07T00:27:53;100705.72;;;8.36;87.12
69173;BME280;56280;49.662;8.408;2023-04-07T00:30:18;100687.94;;;8.38;86.33
69173;BME280;56280;49.662;8.408;2023-04-07T00:32:43;100688.13;;;8.22;86.91
69173;BME280;56280;49.662;8.408;2023-04-07T00:35:09;100670.88;;;8.04;86.85
69173;BME280;56280;49.662;8.408;2023-04-07T00:37:34;100660.72;;;8.11;87.69
69173;BME280;56280;49.662;8.408;2023-04-07T00:39:59;100674.91;;;8.35;87.73
69173;BME280;56280;49.662;8.408;2023-04-07T00:42:26;100666.13;;;8.35;86.79
69173;BME280;56280;49.662;8.408;2023-04-07T00:44:51;100672.63;;;8.44;86.87
69173;BME280;56280;49.662;8.408;2023-04-07T00:47:17;100671.75;;;8.56;86.31
69173;BME280;56280;49.662;8.408;2023-04-07T00:49:42;100636.38;;;8.31;86.20
69173;BME280;56280;49.662;8.408;2023-04-07T00:52:09;100643.59;;;8.29;86.30
69173;BME280;56280;49.662;8.408;2023-04-07T00:54:38;100672.81;;;8.40;85.89
69173;BME280;56280;49.662;8.408;2023-04-07T00:57:05;100671.34;;;8.49;86.00
69173;BME280;56280;49.662;8.408;2023-04-07T00:59:31;100656.63;;;8.45;85.33
69173;BME280;56280;49.662;8.408;2023-04-07T01:04:50;100639.03;;;8.70;84.61
69173;BME280;56280;49.662;8.408;2023-04-07T01:07:23;100653.50;;;8.90;83.83
69173;BME280;56280;49.662;8.408;2023-04-07T01:09:57;100649.81;;;8.80;83.61
69173;BME280;56280;49.662;8.408;2023-04-07T01:15:08;100636.28;;;8.71;83.28
69173;BME280;56280;49.662;8.408;2023-04-07T01:17:36;100638.31;;;8.55;84.52
69173;BME280;56280;49.662;8.408;2023-04-07T01:20:04;100634.06;;;8.65;84.38
69173;BME280;56280;49.662;8.408;2023-04-07T01:28:19;100638.44;;;9.03;83.07
69173;BME280;56280;49.662;8.408;2023-04-07T01:30:51;100601.91;;;8.83;82.35
69173;BME280;56280;49.662;8.408;2023-04-07T01:33:19;100621.84;;;9.12;82.08
69173;BME280;56280;49.662;8.408;2023-04-07T01:35:45;100618.63;;;8.96;82.38
69173;BME280;56280;49.662;8.408;2023-04-07T01:38:11;100613.66;;;8.79;82.51
69173;BME280;56280;49.662;8.408;2023-04-07T01:40:38;100603.28;;;8.75;82.78
69173;BME280;56280;49.662;8.408;2023-04-07T01:43:05;100620.31;;;8.97;82.34
69173;BME280;56280;49.662;8.408;2023-04-07T01:45:31;100616.19;;;8.93;81.82
69173;BME280;56280;49.662;8.408;2023-04-07T01:47:59;100619.56;;;8.95;81.91
69173;BME280;56280;49.662;8.408;2023-04-07T01:50:25;100621.03;;;8.99;81.65
69173;BME280;56280;49.662;8.408;2023-04-07T01:52:52;100592.47;;;8.79;82.23
69173;BME280;56280;49.662;8.408;2023-04-07T01:55:17;100601.19;;;8.81;81.78
69173;BME280;56280;49.662;8.408;2023-04-07T01:57:43;100588.44;;;8.86;81.72
69173;BME280;56280;49.662;8.408;2023-04-07T02:00:08;100594.75;;;8.59;82.15
69173;BME280;56280;49.662;8.408;2023-04-07T02:02:35;100595.06;;;8.42;83.79
69173;BME280;56280;49.662;8.408;2023-04-07T02:05:08;100613.16;;;8.73;83.69
69173;BME280;56280;49.662;8.408;2023-04-07T02:07:47;100612.94;;;8.76;82.95
69173;BME280;56280;49.662;8.408;2023-04-07T02:10:15;100601.94;;;8.70;83.17
69173;BME280;56280;49.662;8.408;2023-04-07T02:12:43;100604.78;;;8.80;82.63
69173;BME280;56280;49.662;8.408;2023-04-07T02:15:11;100605.00;;;8.76;82.51
69173;BME280;56280;49.662;8.408;2023-04-07T02:17:42;100594.88;;;8.57;82.03
69173;BME280;56280;49.662;8.408;2023-04-07T02:20:11;100580.06;;;8.29;83.11
69173;BME280;56280;49.662;8.408;2023-04-07T02:22:38;100576.53;;;8.42;83.64
69173;BME280;56280;49.662;8.408;2023-04-07T02:25:28;100591.50;;;8.55;83.00
69173;BME280;56280;49.662;8.408;2023-04-07T02:27:55;100602.47;;;8.62;82.49
69173;BME280;56280;49.662;8.408;2023-04-07T02:30:21;100594.97;;;8.56;82.44
69173;BME280;56280;49.662;8.408;2023-04-07T02:32:46;100589.34;;;8.61;82.72
69173;BME280;56280;49.662;8.408;2023-04-07T02:35:12;100596.03;;;8.66;81.71
69173;BME280;56280;49.662;8.408;2023-04-07T02:37:38;100596.34;;;8.62;81.80
69173;BME280;56280;49.662;8.408;2023-04-07T02:40:04;100575.19;;;8.49;81.57
69173;BME280;56280;49.662;8.408;2023-04-07T02:42:30;100592.31;;;8.56;81.27
69173;BME280;56280;49.662;8.408;2023-04-07T02:44:55;100587.47;;;8.50;81.97
69173;BME280;56280;49.662;8.408;2023-04-07T02:47:21;100580.25;;;8.65;82.01
69173;BME280;56280;49.662;8.408;2023-04-07T02:49:46;100572.44;;;8.50;81.32
69173;BME280;56280;49.662;8.408;2023-04-07T02:52:11;100576.84;;;8.63;81.13
69173;BME280;56280;49.662;8.408;2023-04-07T02:54:36;100571.88;;;8.58;80.95
69173;BME280;56280;49.662;8.408;2023-04-07T02:57:02;100579.38;;;8.64;80.79
69173;BME280;56280;49.662;8.408;2023-04-07T02:59:27;100571.56;;;8.50;80.73
69173;BME280;56280;49.662;8.408;2023-04-07T03:01:52;100583.53;;;8.43;81.29
69173;BME280;56280;49.662;8.408;2023-04-07T03:04:17;100573.91;;;8.16;81.69
69173;BME280;56280;49.662;8.408;2023-04-07T03:06:43;100573.06;;;8.28;82.23
69173;BME280;56280;49.662;8.408;2023-04-07T03:09:08;100588.81;;;8.43;81.50
69173;BME280;56280;49.662;8.408;2023-04-07T03:11:33;100581.09;;;8.39;81.88
69173;BME280;56280;49.662;8.408;2023-04-07T03:13:58;100582.34;;;8.34;81.40
69173;BME280;56280;49.662;8.408;2023-04-07T03:16:24;100573.88;;;8.42;81.73
69173;BME280;56280;49.662;8.408;2023-04-07T03:18:49;100584.19;;;8.46;81.76
69173;BME280;56280;49.662;8.408;2023-04-07T03:21:14;100564.59;;;8.36;81.06
69173;BME280;56280;49.662;8.408;2023-04-07T03:23:40;100571.94;;;8.07;81.97
69173;BME280;56280;49.662;8.408;2023-04-07T03:26:05;100568.41;;;8.06;82.47
69173;BME280;56280;49.662;8.408;2023-04-07T03:28:30;100574.78;;;8.16;82.07
69173;BME280;56280;49.662;8.408;2023-04-07T03:30:56;100563.84;;;8.21;82.37
69173;BME280;56280;49.662;8.408;2023-04-07T03:33:21;100571.25;;;8.16;81.81
69173;BME280;56280;49.662;8.408;2023-04-07T03:35:46;100561.88;;;8.12;82.45
69173;BME280;56280;49.662;8.408;2023-04-07T03:38:11;100572.53;;;8.23;82.37
69173;BME280;56280;49.662;8.408;2023-04-07T03:40:37;100539.50;;;8.16;81.56
69173;BME280;56280;49.662;8.408;2023-04-07T03:43:02;100560.03;;;8.25;81.75
69173;BME280;56280;49.662;8.408;2023-04-07T03:45:27;100562.19;;;8.07;82.16
69173;BME280;56280;49.662;8.408;2023-04-07T03:47:52;100550.84;;;8.18;82.11
69173;BME280;56280;49.662;8.408;2023-04-07T03:50:18;100566.47;;;8.34;81.61
69173;BME280;56280;49.662;8.408;2023-04-07T03:52:43;100551.06;;;8.28;81.66
69173;BME280;56280;49.662;8.408;2023-04-07T03:55:09;100540.56;;;8.26;81.21
69173;BME280;56280;49.662;8.408;2023-04-07T03:57:34;100565.44;;;8.49;80.95
69173;BME280;56280;49.662;8.408;2023-04-07T03:59:59;100562.78;;;8.49;80.38
69173;BME280;56280;49.662;8.408;2023-04-07T04:02:24;100569.13;;;8.60;80.18
69173;BME280;56280;49.662;8.408;2023-04-07T04:04:50;100571.03;;;8.57;80.32
69173;BME280;56280;49.662;8.408;2023-04-07T04:07:15;100556.16;;;8.18;80.63
69173;BME280;56280;49.662;8.408;2023-04-07T04:09:40;100547.34;;;8.17;81.06
69173;BME280;56280;49.662;8.408;2023-04-07T04:12:06;100547.03;;;8.22;81.22
69173;BME280;56280;49.662;8.408;2023-04-07T04:14:31;100542.47;;;8.24;81.36
69173;BME280;56280;49.662;8.408;2023-04-07T04:16:56;100573.06;;;8.41;81.45
69173;BME280;56280;49.662;8.408;2023-04-07T04:19:21;100564.94;;;8.44;80.73
69173;BME280;56280;49.662;8.408;2023-04-07T04:21:47;100540.78;;;8.36;80.69
69173;BME280;56280;49.662;8.408;2023-04-07T04:24:12;100559.41;;;8.34;80.80
69173;BME280;56280;49.662;8.408;2023-04-07T04:26:37;100568.50;;;8.30;80.69
69173;BME280;56280;49.662;8.408;2023-04-07T04:29:03;100557.63;;;8.09;81.84
69173;BME280;56280;49.662;8.408;2023-04-07T04:31:28;100565.88;;;8.17;82.18
69173;BME280;56280;49.662;8.408;2023-04-07T04:33:53;100554.84;;;8.24;81.82
69173;BME280;56280;49.662;8.408;2023-04-07T04:36:18;100572.13;;;8.29;81.51
69173;BME280;56280;49.662;8.408;2023-04-07T04:38:44;100550.06;;;8.29;81.33
69173;BME280;56280;49.662;8.408;2023-04-07T04:41:09;100546.06;;;8.36;81.39
69173;BME280;56280;49.662;8.408;2023-04-07T04:43:34;100558.97;;;8.53;80.97
69173;BME280;56280;49.662;8.408;2023-04-07T04:46:00;100559.91;;;8.65;79.94
69173;BME280;56280;49.662;8.408;2023-04-07T04:48:25;100559.19;;;8.50;80.10
69173;BME280;56280;49.662;8.408;2023-04-07T04:50:51;100574.66;;;8.56;80.55
69173;BME280;56280;49.662;8.408;2023-04-07T04:53:16;100578.44;;;8.65;80.74
69173;BME280;56280;49.662;8.408;2023-04-07T04:55:41;100544.13;;;8.64;79.88
69173;BME280;56280;49.662;8.408;2023-04-07T04:58:11;100576.59;;;8.79;80.56
69173;BME280;56280;49.662;8.408;2023-04-07T05:00:36;100573.41;;;8.86;79.96
69173;BME280;56280;49.662;8.408;2023-04-07T05:03:01;100559.81;;;8.91;79.82
69173;BME280;56280;49.662;8.408;2023-04-07T05:05:27;100564.88;;;8.94;79.43
69173;BME280;56280;49.662;8.408;2023-04-07T05:07:52;100568.50;;;8.93;79.44
69173;BME280;56280;49.662;8.408;2023-04-07T05:10:18;100563.78;;;8.72;79.05
69173;BME280;56280;49.662;8.408;2023-04-07T05:12:43;100577.78;;;8.74;80.06
69173;BME280;56280;49.662;8.408;2023-04-07T05:15:09;100576.53;;;8.91;79.72
69173;BME280;56280;49.662;8.408;2023-04-07T05:17:34;100557.06;;;8.92;79.70
69173;BME280;56280;49.662;8.408;2023-04-07T05:20:00;100554.28;;;8.94;79.37
69173;BME280;56280;49.662;8.408;2023-04-07T05:22:25;100563.81;;;8.97;79.63
69173;BME280;56280;49.662;8.408;2023-04-07T05:24:50;100547.78;;;8.98;79.57
69173;BME280;56280;49.662;8.408;2023-04-07T05:27:15;100565.69;;;9.07;79.54
69173;BME280;56280;49.662;8.408;2023-04-07T05:29:41;100560.16;;;8.86;79.43
69173;BME280;56280;49.662;8.408;2023-04-07T05:32:06;100571.41;;;8.77;80.59
69173;BME280;56280;49.662;8.408;2023-04-07T05:34:31;100580.19;;;8.90;80.75
69173;BME280;56280;49.662;8.408;2023-04-07T05:36:57;100564.63;;;9.10;79.92
69173;BME280;56280;49.662;8.408;2023-04-07T05:39:22;100562.91;;;9.09;79.31
69173;BME280;56280;49.662;8.408;2023-04-07T05:41:47;100558.28;;;9.00;79.65
69173;BME280;56280;49.662;8.408;2023-04-07T05:44:12;100563.31;;;9.16;79.07
69173;BME280;56280;49.662;8.408;2023-04-07T05:46:38;100561.31;;;9.06;79.94
69173;BME280;56280;49.662;8.408;2023-04-07T05:49:03;100550.13;;;9.03;80.08
69173;BME280;56280;49.662;8.408;2023-04-07T05:51:28;100565.22;;;9.13;79.78
69173;BME280;56280;49.662;8.408;2023-04-07T05:53:55;100556.56;;;9.11;80.18
69173;BME280;56280;49.662;8.408;2023-04-07T05:56:20;100563.69;;;9.22;79.61
69173;BME280;56280;49.662;8.408;2023-04-07T05:58:46;100536.56;;;9.19;79.90
69173;BME280;56280;49.662;8.408;2023-04-07T06:01:11;100567.28;;;9.45;79.54
69173;BME280;56280;49.662;8.408;2023-04-07T06:03:36;100546.81;;;9.47;79.35
69173;BME280;56280;49.662;8.408;2023-04-07T06:06:01;100551.56;;;9.66;78.78
69173;BME280;56280;49.662;8.408;2023-04-07T06:08:27;100564.84;;;9.78;79.09
69173;BME280;56280;49.662;8.408;2023-04-07T06:10:52;100572.94;;;9.76;78.50
69173;BME280;56280;49.662;8.408;2023-04-07T06:13:18;100551.69;;;9.65;78.92
69173;BME280;56280;49.662;8.408;2023-04-07T06:15:44;100579.44;;;9.83;78.89
69173;BME280;56280;49.662;8.408;2023-04-07T06:18:10;100571.25;;;9.86;78.16
69173;BME280;56280;49.662;8.408;2023-04-07T06:20:35;100567.28;;;9.92;77.93
69173;BME280;56280;49.662;8.408;2023-04-07T06:23:00;100571.50;;;9.95;78.00
69173;BME280;56280;49.662;8.408;2023-04-07T06:25:26;100554.84;;;9.81;78.32
69173;BME280;56280;49.662;8.408;2023-04-07T06:27:52;100566.06;;;9.85;78.10
69173;BME280;56280;49.662;8.408;2023-04-07T06:30:17;100561.88;;;9.94;77.94
69173;BME280;56280;49.662;8.408;2023-04-07T06:32:43;100568.72;;;9.96;78.86
69173;BME280;56280;49.662;8.408;2023-04-07T06:35:08;100583.13;;;10.28;78.40
69173;BME280;56280;49.662;8.408;2023-04-07T06:37:34;100574.28;;;10.04;77.97
69173;BME280;56280;49.662;8.408;2023-04-07T06:40:00;100578.16;;;10.00;77.77
69173;BME280;56280;49.662;8.408;2023-04-07T06:42:25;100577.09;;;10.14;77.93
69173;BME280;56280;49.662;8.408;2023-04-07T06:44:51;100578.66;;;10.28;77.45
69173;BME280;56280;49.662;8.408;2023-04-07T06:47:17;100575.69;;;10.33;77.42
69173;BME280;56280;49.662;8.408;2023-04-07T06:49:42;100586.84;;;10.14;77.86
69173;BME280;56280;49.662;8.408;2023-04-07T06:52:08;100588.00;;;10.34;78.05
69173;BME280;56280;49.662;8.408;2023-04-07T06:54:33;100590.53;;;10.47;78.17
69173;BME280;56280;49.662;8.408;2023-04-07T06:56:59;100585.06;;;10.26;77.96
69173;BME280;56280;49.662;8.408;2023-04-07T06:59:25;100552.69;;;10.20;78.08
69173;BME280;56280;49.662;8.408;2023-04-07T07:01:50;100557.56;;;10.49;76.49
69173;BME280;56280;49.662;8.408;2023-04-07T07:04:16;100581.19;;;10.86;76.33
69173;BME280;56280;49.662;8.408;2023-04-07T07:06:41;100585.72;;;11.07;76.19
69173;BME280;56280;49.662;8.408;2023-04-07T07:09:07;100588.63;;;11.04;74.37
69173;BME280;56280;49.662;8.408;2023-04-07T07:11:32;100566.13;;;10.75;75.31
69173;BME280;56280;49.662;8.408;2023-04-07T07:13:58;100590.16;;;10.74;75.22
69173;BME280;56280;49.662;8.408;2023-04-07T07:16:23;100596.03;;;10.89;76.14
69173;BME280;56280;49.662;8.408;2023-04-07T07:18:49;100582.19;;;11.18;75.63
69173;BME280;56280;49.662;8.408;2023-04-07T07:21:16;100575.09;;;11.39;74.90
69173;BME280;56280;49.662;8.408;2023-04-07T07:23:41;100594.03;;;11.46;73.62
69173;BME280;56280;49.662;8.408;2023-04-07T07:26:07;100586.34;;;11.31;73.47
69173;BME280;56280;49.662;8.408;2023-04-07T07:28:32;100590.13;;;11.29;73.54
69173;BME280;56280;49.662;8.408;2023-04-07T07:30:57;100565.91;;;11.11;74.12
69173;BME280;56280;49.662;8.408;2023-04-07T07:33:23;100575.84;;;10.98;73.46
69173;BME280;56280;49.662;8.408;2023-04-07T07:35:48;100575.84;;;10.86;74.33
69173;BME280;56280;49.662;8.408;2023-04-07T07:38:13;100582.63;;;11.34;73.38
69173;BME280;56280;49.662;8.408;2023-04-07T07:40:38;100570.56;;;11.19;72.13
69173;BME280;56280;49.662;8.408;2023-04-07T07:43:04;100585.94;;;11.47;72.16
69173;BME280;56280;49.662;8.408;2023-04-07T07:45:30;100575.75;;;11.53;73.27
69173;BME280;56280;49.662;8.408;2023-04-07T07:47:55;100565.78;;;11.66;72.04
69173;BME280;56280;49.662;8.408;2023-04-07T07:50:20;100588.44;;;12.02;70.83
69173;BME280;56280;49.662;8.408;2023-04-07T07:52:46;100584.66;;;12.26;70.85
69173;BME280;56280;49.662;8.408;2023-04-07T07:55:11;100582.63;;;12.49;70.25
69173;BME280;56280;49.662;8.408;2023-04-07T07:57:37;100582.16;;;12.75;68.33
69173;BME280;56280;49.662;8.408;2023-04-07T08:00:02;100588.25;;;12.97;68.54
69173;BME280;56280;49.662;8.408;2023-04-07T08:02:28;100588.78;;;12.81;67.73
69173;BME280;56280;49.662;8.408;2023-04-07T08:04:56;100607.25;;;13.23;68.67
69173;BME280;56280;49.662;8.408;2023-04-07T08:07:22;100602.94;;;13.61;67.13
69173;BME280;56280;49.662;8.408;2023-04-07T08:09:47;100592.53;;;13.67;66.53
69173;BME280;56280;49.662;8.408;2023-04-07T08:12:13;100616.97;;;13.63;66.54
69173;BME280;56280;49.662;8.408;2023-04-07T08:14:39;100612.16;;;13.96;65.97
69173;BME280;56280;49.662;8.408;2023-04-07T08:17:04;100607.13;;;13.93;64.25
69173;BME280;56280;49.662;8.408;2023-04-07T08:19:30;100599.66;;;14.06;65.30
69173;BME280;56280;49.662;8.408;2023-04-07T08:21:55;100617.34;;;14.17;63.58
69173;BME280;56280;49.662;8.408;2023-04-07T08:24:20;100599.34;;;14.09;64.14
69173;BME280;56280;49.662;8.408;2023-04-07T08:26:46;100613.59;;;14.37;64.20
69173;BME280;56280;49.662;8.408;2023-04-07T08:29:11;100616.56;;;14.34;63.40
69173;BME280;56280;49.662;8.408;2023-04-07T08:31:36;100609.28;;;14.27;63.72
69173;BME280;56280;49.662;8.408;2023-04-07T08:34:02;100607.50;;;14.17;63.40
69173;BME280;56280;49.662;8.408;2023-04-07T08:36:27;100622.44;;;13.91;64.62
69173;BME280;56280;49.662;8.408;2023-04-07T08:38:54;100631.28;;;14.11;64.15
69173;BME280;56280;49.662;8.408;2023-04-07T08:41:28;100613.34;;;13.64;65.41
69173;BME280;56280;49.662;8.408;2023-04-07T08:43:56;100611.88;;;13.89;64.95
69173;BME280;56280;49.662;8.408;2023-04-07T08:46:24;100630.44;;;13.91;65.07
69173;BME280;56280;49.662;8.408;2023-04-07T08:48:51;100619.63;;;13.92;64.57
69173;BME280;56280;49.662;8.408;2023-04-07T08:51:26;100615.59;;;13.78;64.69
69173;BME280;56280;49.662;8.408;2023-04-07T08:53:53;100618.34;;;14.06;64.73
69173;BME280;56280;49.662;8.408;2023-04-07T08:56:19;100636.28;;;14.33;63.92
69173;BME280;56280;49.662;8.408;2023-04-07T08:58:46;100618.53;;;14.32;64.39
69173;BME280;56280;49.662;8.408;2023-04-07T09:01:12;100614.25;;;14.59;63.36
69173;BME280;56280;49.662;8.408;2023-04-07T09:03:37;100632.59;;;14.34;62.42
69173;BME280;56280;49.662;8.408;2023-04-07T09:06:03;100641.16;;;14.48;63.36
69173;BME280;56280;49.662;8.408;2023-04-07T09:08:28;100647.72;;;14.53;63.60
69173;BME280;56280;49.662;8.408;2023-04-07T09:10:55;100632.59;;;14.44;63.11
69173;BME280;56280;49.662;8.408;2023-04-07T09:13:21;100644.47;;;14.22;63.76
69173;BME280;56280;49.662;8.408;2023-04-07T09:15:48;100646.81;;;14.35;62.99
69173;BME280;56280;49.662;8.408;2023-04-07T09:18:13;100649.50;;;13.18;65.04
69173;BME280;56280;49.662;8.408;2023-04-07T09:20:59;100651.19;;;12.78;68.77
69173;BME280;56280;49.662;8.408;2023-04-07T09:23:36;100655.22;;;13.03;67.17
69173;BME280;56280;49.662;8.408;2023-04-07T09:26:18;100649.13;;;12.82;68.72
69173;BME280;56280;49.662;8.408;2023-04-07T09:28:48;100659.09;;;12.89;67.72
69173;BME280;56280;49.662;8.408;2023-04-07T09:31:14;100657.09;;;13.32;67.54
69173;BME280;56280;49.662;8.408;2023-04-07T09:33:40;100653.69;;;13.10;66.73
69173;BME280;56280;49.662;8.408;2023-04-07T09:36:06;100654.44;;;12.51;69.15
69173;BME280;56280;49.662;8.408;2023-04-07T09:38:36;100658.75;;;13.13;67.75
69173;BME280;56280;49.662;8.408;2023-04-07T09:41:09;100654.22;;;13.64;66.16
69173;BME280;56280;49.662;8.408;2023-04-07T09:43:40;100653.66;;;13.71;65.97
69173;BME280;56280;49.662;8.408;2023-04-07T09:46:10;100653.47;;;12.83;67.61
69173;BME280;56280;49.662;8.408;2023-04-07T09:48:36;100654.16;;;13.25;67.16
69173;BME280;56280;49.662;8.408;2023-04-07T09:53:48;100669.09;;;11.06;73.31
69173;BME280;56280;49.662;8.408;2023-04-07T09:56:20;100674.66;;;11.25;73.91
69173;BME280;56280;49.662;8.408;2023-04-07T09:58:49;100662.16;;;11.70;74.82
69173;BME280;56280;49.662;8.408;2023-04-07T10:01:19;100649.53;;;12.46;72.49
69173;BME280;56280;49.662;8.408;2023-04-07T10:03:45;100641.28;;;12.90;69.90
69173;BME280;56280;49.662;8.408;2023-04-07T10:06:11;100637.69;;;13.10;68.01
69173;BME280;56280;49.662;8.408;2023-04-07T10:08:39;100661.66;;;13.41;67.53
69173;BME280;56280;49.662;8.408;2023-04-07T10:11:05;100661.66;;;13.51;66.47
69173;BME280;56280;49.662;8.408;2023-04-07T10:13:33;100670.66;;;13.60;65.08
69173;BME280;56280;49.662;8.408;2023-04-07T10:15:58;100645.94;;;13.48;66.18
69173;BME280;56280;49.662;8.408;2023-04-07T10:18:28;100659.97;;;13.79;66.15
69173;BME280;56280;49.662;8.408;2023-04-07T10:21:00;100665.44;;;13.78;64.58
69173;BME280;56280;49.662;8.408;2023-04-07T10:26:32;100668.56;;;13.83;67.38
69173;BME280;56280;49.662;8.408;2023-04-07T10:29:07;100676.69;;;13.62;68.01
69173;BME280;56280;49.662;8.408;2023-04-07T10:31:35;100675.16;;;13.49;69.47
69173;BME280;56280;49.662;8.408;2023-04-07T10:34:01;100658.72;;;13.44;69.13
69173;BME280;56280;49.662;8.408;2023-04-07T10:36:26;100663.59;;;13.49;69.20
69173;BME280;56280;49.662;8.408;2023-04-07T10:43:57;100678.72;;;13.29;72.24
69173;BME280;56280;49.662;8.408;2023-04-07T10:46:23;100675.97;;;13.40;72.47
69173;BME280;56280;49.662;8.408;2023-04-07T10:49:07;100690.03;;;13.52;72.83
69173;BME280;56280;49.662;8.408;2023-04-07T10:51:33;100664.31;;;13.41;72.34
69173;BME280;56280;49.662;8.408;2023-04-07T10:54:15;100687.06;;;13.45;71.54
69173;BME280;56280;49.662;8.408;2023-04-07T10:57:11;100691.72;;;13.43;71.62
69173;BME280;56280;49.662;8.408;2023-04-07T11:04:51;100689.59;;;13.37;74.52
69173;BME280;56280;49.662;8.408;2023-04-07T11:07:17;100682.09;;;12.50;76.18
69173;BME280;56280;49.662;8.408;2023-04-07T11:09:44;100702.22;;;11.13;80.54
69173;BME280;56280;49.662;8.408;2023-04-07T11:12:21;100668.31;;;11.38;82.47
69173;BME280;56280;49.662;8.408;2023-04-07T11:14:46;100684.88;;;11.30;82.88
69173;BME280;56280;49.662;8.408;2023-04-07T11:17:13;100668.50;;;11.13;83.74
69173;BME280;56280;49.662;8.408;2023-04-07T11:19:52;100682.88;;;10.66;85.10
69173;BME280;56280;49.662;8.408;2023-04-07T11:22:20;100685.56;;;10.19;86.88
69173;BME280;56280;49.662;8.408;2023-04-07T11:24:45;100672.41;;;10.98;86.29
69173;BME280;56280;49.662;8.408;2023-04-07T11:27:16;100662.25;;;10.92;86.31
69173;BME280;56280;49.662;8.408;2023-04-07T11:29:42;100676.72;;;10.88;84.26
69173;BME280;56280;49.662;8.408;2023-04-07T11:32:08;100653.94;;;10.63;86.18
69173;BME280;56280;49.662;8.408;2023-04-07T11:34:35;100681.09;;;11.55;85.09
69173;BME280;56280;49.662;8.408;2023-04-07T11:37:20;100706.44;;;11.04;82.87
69173;BME280;56280;49.662;8.408;2023-04-07T11:39:57;100710.53;;;10.40;86.53
69173;BME280;56280;49.662;8.408;2023-04-07T11:42:38;100700.78;;;10.98;87.63
69173;BME280;56280;49.662;8.408;2023-04-07T11:45:17;100713.72;;;10.91;84.62
69173;BME280;56280;49.662;8.408;2023-04-07T11:47:43;100702.22;;;11.24;85.08
69173;BME280;56280;49.662;8.408;2023-04-07T11:50:09;100692.94;;;11.51;82.98
69173;BME280;56280;49.662;8.408;2023-04-07T11:52:46;100708.00;;;11.73;81.27
69173;BME280;56280;49.662;8.408;2023-04-07T11:55:20;100695.97;;;11.58;81.57
69173;BME280;56280;49.662;8.408;2023-04-07T11:57:46;100710.22;;;11.57;82.72
69173;BME280;56280;49.662;8.408;2023-04-07T12:00:13;100710.44;;;11.65;81.60
69173;BME280;56280;49.662;8.408;2023-04-07T12:02:38;100724.69;;;10.75;82.37
69173;BME280;56280;49.662;8.408;2023-04-07T12:05:05;100726.00;;;10.47;84.13
69173;BME280;56280;49.662;8.408;2023-04-07T12:07:30;100702.94;;;10.12;84.80
69173;BME280;56280;49.662;8.408;2023-04-07T12:09:56;100716.75;;;9.93;84.53
69173;BME280;56280;49.662;8.408;2023-04-07T12:12:25;100726.34;;;10.07;85.50
69173;BME280;56280;49.662;8.408;2023-04-07T12:14:51;100714.16;;;10.15;86.24
69173;BME280;56280;49.662;8.408;2023-04-07T12:17:21;100730.97;;;10.16;85.40
69173;BME280;56280;49.662;8.408;2023-04-07T12:19:46;100724.06;;;10.13;85.54
69173;BME280;56280;49.662;8.408;2023-04-07T12:22:12;100702.59;;;10.16;84.37
69173;BME280;56280;49.662;8.408;2023-04-07T12:24:37;100734.19;;;10.32;83.45
69173;BME280;56280;49.662;8.408;2023-04-07T12:27:02;100722.09;;;10.39;84.75
69173;BME280;56280;49.662;8.408;2023-04-07T12:29:28;100714.06;;;10.75;83.20
69173;BME280;56280;49.662;8.408;2023-04-07T12:31:54;100730.25;;;10.83;81.06
69173;BME280;56280;49.662;8.408;2023-04-07T12:34:20;100731.13;;;10.84;83.91
69173;BME280;56280;49.662;8.408;2023-04-07T12:36:45;100733.53;;;10.75;84.41
69173;BME280;56280;49.662;8.408;2023-04-07T12:39:10;100727.09;;;10.55;83.18
69173;BME280;56280;49.662;8.408;2023-04-07T12:41:36;100719.00;;;10.68;84.35
69173;BME280;56280;49.662;8.408;2023-04-07T12:44:03;100730.75;;;11.11;83.04
69173;BME280;56280;49.662;8.408;2023-04-07T12:46:28;100727.94;;;10.90;83.57
69173;BME280;56280;49.662;8.408;2023-04-07T12:48:53;100724.69;;;10.86;83.40
69173;BME280;56280;49.662;8.408;2023-04-07T12:51:19;100742.59;;;11.07;84.59
69173;BME280;56280;49.662;8.408;2023-04-07T12:53:44;100743.31;;;10.86;84.37
69173;BME280;56280;49.662;8.408;2023-04-07T12:56:09;100735.31;;;10.86;83.14
69173;BME280;56280;49.662;8.408;2023-04-07T12:58:37;100732.91;;;10.83;82.69
69173;BME280;56280;49.662;8.408;2023-04-07T13:01:02;100735.81;;;10.91;82.31
69173;BME280;56280;49.662;8.408;2023-04-07T13:03:27;100741.63;;;10.97;82.16
69173;BME280;56280;49.662;8.408;2023-04-07T13:05:53;100737.03;;;10.99;82.29
69173;BME280;56280;49.662;8.408;2023-04-07T13:08:19;100742.22;;;11.00;79.32
69173;BME280;56280;49.662;8.408;2023-04-07T13:10:45;100738.47;;;10.80;81.03
69173;BME280;56280;49.662;8.408;2023-04-07T13:13:11;100741.72;;;10.61;80.60
69173;BME280;56280;49.662;8.408;2023-04-07T13:15:36;100743.31;;;11.09;82.21
69173;BME280;56280;49.662;8.408;2023-04-07T13:18:01;100741.09;;;11.48;78.44
69173;BME280;56280;49.662;8.408;2023-04-07T13:20:27;100731.13;;;11.06;78.66